Time;durP1;ratioP1;P1;durP2;ratioP2;P2;SDS_P1;SDS_P2;PMS_P1;PMS_P2;Temp;Humidity;BMP_temperature;BMP_pressure;BME280_temperature;BME280_humidity;BME280_pressure;Samples;Min_cycle;Max_cycle;Signal;HPM_P1;HPM_P2
2022/01/11 00:01:42;;;;;;;122.07;50.88;;;0.70;99.90;;;;;;5120276;27;20555;-82
2022/01/11 00:04:10;;;;;;;114.20;48.40;;;0.80;99.90;;;;;;5079785;27;20074;-82
2022/01/11 00:06:50;;;;;;;142.25;48.75;;;0.80;99.90;;;;;;5136959;27;20047;-83
2022/01/11 00:09:40;;;;;;;106.75;48.33;;;0.80;99.90;;;;;;5119157;27;20042;-82
2022/01/11 00:12:08;;;;;;;114.80;49.53;;;0.80;99.90;;;;;;5120488;27;20039;-83
2022/01/11 00:14:34;;;;;;;86.32;45.28;;;0.80;99.90;;;;;;5137101;27;20046;-82
2022/01/11 00:17:00;;;;;;;86.35;45.50;;;0.80;99.90;;;;;;5120930;27;20110;-82
2022/01/11 00:19:28;;;;;;;81.65;43.80;;;0.70;99.90;;;;;;5103259;27;20039;-82
2022/01/11 00:21:54;;;;;;;86.95;44.85;;;0.80;99.90;;;;;;5120147;27;20039;-82
2022/01/11 00:24:30;;;;;;;83.47;44.97;;;0.80;99.90;;;;;;5120703;27;20047;-82
2022/01/11 00:27:04;;;;;;;76.88;43.05;;;0.80;99.90;;;;;;5119430;27;20042;-82
2022/01/11 00:29:31;;;;;;;83.88;45.25;;;0.80;99.90;;;;;;5119379;27;20049;-82
2022/01/11 00:32:02;;;;;;;84.75;43.20;;;0.80;99.90;;;;;;5116792;27;20171;-82
2022/01/11 00:34:38;;;;;;;85.22;43.50;;;0.80;99.90;;;;;;5117165;27;20488;-82
2022/01/11 00:37:04;;;;;;;76.65;41.10;;;0.80;99.90;;;;;;5103828;27;20081;-82
2022/01/11 00:39:30;;;;;;;73.75;40.47;;;0.70;99.90;;;;;;5116657;27;20047;-82
2022/01/11 00:41:56;;;;;;;66.20;39.53;;;0.80;99.90;;;;;;5098706;27;20436;-82
2022/01/11 00:44:23;;;;;;;73.10;40.47;;;0.80;99.90;;;;;;5119674;27;20111;-82
2022/01/11 00:46:49;;;;;;;74.47;40.30;;;0.80;99.90;;;;;;5102429;27;20054;-83
2022/01/11 00:49:15;;;;;;;66.22;40.35;;;0.80;99.90;;;;;;5085583;27;20091;-82
2022/01/11 00:51:40;;;;;;;70.18;40.08;;;0.80;99.90;;;;;;5100619;27;20035;-82
2022/01/11 00:54:06;;;;;;;66.75;38.20;;;0.80;99.90;;;;;;5136962;27;20046;-84
2022/01/11 00:56:32;;;;;;;68.05;37.45;;;0.90;99.90;;;;;;5118885;27;20039;-82
2022/01/11 00:58:57;;;;;;;64.03;36.80;;;0.80;99.90;;;;;;5119647;27;20482;-82
2022/01/11 01:01:23;;;;;;;63.63;35.45;;;0.90;99.90;;;;;;5119589;27;20114;-82
2022/01/11 01:03:49;;;;;;;65.53;35.13;;;0.80;99.90;;;;;;5102709;27;20042;-87
2022/01/11 01:06:15;;;;;;;62.45;35.65;;;0.80;99.90;;;;;;5136554;27;20502;-83
2022/01/11 01:08:41;;;;;;;62.92;33.33;;;0.90;99.90;;;;;;5119318;27;20103;-82
2022/01/11 01:11:06;;;;;;;55.22;32.47;;;0.90;99.90;;;;;;5098993;27;20047;-83
2022/01/11 01:13:32;;;;;;;49.35;31.20;;;1.00;99.90;;;;;;5115627;27;20449;-82
2022/01/11 01:15:58;;;;;;;57.75;32.92;;;0.90;99.90;;;;;;5096960;27;20111;-83
2022/01/11 01:18:27;;;;;;;54.22;31.17;;;1.00;99.90;;;;;;5119007;27;20134;-82
2022/01/11 01:20:54;;;;;;;55.00;30.80;;;1.00;99.90;;;;;;5119514;27;20445;-83
2022/01/11 01:23:21;;;;;;;49.70;29.52;;;1.00;99.90;;;;;;5119745;27;20424;-82
2022/01/11 01:25:48;;;;;;;52.25;30.55;;;1.00;99.90;;;;;;5116201;28;20039;-82
2022/01/11 01:28:15;;;;;;;52.75;29.77;;;1.00;99.90;;;;;;5099143;27;20054;-82
2022/01/11 01:30:41;;;;;;;49.83;29.17;;;1.00;99.90;;;;;;5102425;27;20491;-82
2022/01/11 01:33:07;;;;;;;51.45;29.30;;;1.00;99.90;;;;;;5101745;27;20031;-82
2022/01/11 01:35:39;;;;;;;47.92;27.65;;;1.10;99.90;;;;;;5099112;28;20054;-82
2022/01/11 01:38:08;;;;;;;45.83;28.27;;;1.10;99.90;;;;;;5116009;27;20082;-82
2022/01/11 01:40:39;;;;;;;54.22;29.40;;;1.10;99.90;;;;;;5082519;28;20086;-82
2022/01/11 01:43:08;;;;;;;45.53;28.00;;;1.10;99.90;;;;;;5086367;28;20047;-83
2022/01/11 01:45:34;;;;;;;43.00;26.70;;;1.10;99.90;;;;;;5102148;27;20418;-82
2022/01/11 01:48:02;;;;;;;42.33;27.27;;;1.10;99.90;;;;;;5101896;27;20475;-82
2022/01/11 01:50:28;;;;;;;46.58;28.13;;;1.10;99.90;;;;;;5102224;27;20060;-82
2022/01/11 01:52:57;;;;;;;42.50;26.13;;;1.10;99.90;;;;;;5118412;27;20436;-82
2022/01/11 01:55:23;;;;;;;49.38;27.67;;;1.10;99.90;;;;;;5135685;27;20055;-83
2022/01/11 01:57:50;;;;;;;50.17;28.23;;;1.10;99.90;;;;;;5118426;27;20133;-83
2022/01/11 02:00:20;;;;;;;43.90;27.33;;;1.10;99.90;;;;;;5118645;27;20538;-81
2022/01/11 02:02:46;;;;;;;43.97;26.40;;;1.10;99.90;;;;;;5102050;27;20528;-82
2022/01/11 02:05:12;;;;;;;44.00;27.80;;;1.00;99.90;;;;;;5098441;28;20051;-82
2022/01/11 02:07:38;;;;;;;45.85;27.10;;;1.00;99.90;;;;;;5110821;27;20042;-82
2022/01/11 02:10:06;;;;;;;48.72;27.42;;;1.00;99.90;;;;;;5119033;27;20043;-82
2022/01/11 02:12:32;;;;;;;44.42;26.45;;;1.00;99.90;;;;;;5136550;27;20110;-82
2022/01/11 02:14:57;;;;;;;45.75;26.52;;;1.10;99.90;;;;;;5117963;27;20043;-87
2022/01/11 02:17:29;;;;;;;43.33;26.77;;;1.00;99.90;;;;;;5118144;27;20099;-82
2022/01/11 02:19:55;;;;;;;44.05;25.60;;;1.00;99.90;;;;;;5119312;27;20043;-82
2022/01/11 02:22:22;;;;;;;53.40;26.08;;;1.00;99.90;;;;;;5101222;27;20030;-82
2022/01/11 02:24:48;;;;;;;49.55;26.83;;;1.00;99.90;;;;;;5100160;27;20100;-82
2022/01/11 02:27:14;;;;;;;46.78;27.83;;;1.00;99.90;;;;;;5080881;28;20043;-82
2022/01/11 02:29:40;;;;;;;53.22;28.63;;;1.00;99.90;;;;;;5082386;27;20099;-82
2022/01/11 02:32:06;;;;;;;48.05;26.73;;;1.00;99.90;;;;;;5105703;27;20050;-82
2022/01/11 02:34:32;;;;;;;48.70;26.70;;;1.00;99.90;;;;;;5105955;27;20046;-82
2022/01/11 02:36:57;;;;;;;50.35;27.13;;;1.00;99.90;;;;;;5105580;27;20039;-82
2022/01/11 02:39:23;;;;;;;44.03;26.40;;;1.10;99.90;;;;;;5121751;27;20546;-82
2022/01/11 02:41:54;;;;;;;50.63;28.67;;;1.00;99.90;;;;;;5081934;27;20471;-86
2022/01/11 02:44:21;;;;;;;49.22;26.95;;;1.10;99.90;;;;;;5122524;27;20073;-82
2022/01/11 02:46:47;;;;;;;45.72;26.60;;;1.00;99.90;;;;;;5122120;27;20054;-82
2022/01/11 02:49:12;;;;;;;48.92;27.17;;;1.00;99.90;;;;;;5139606;27;20039;-82
2022/01/11 02:51:38;;;;;;;45.28;26.33;;;1.10;99.90;;;;;;5088398;27;20395;-81
2022/01/11 02:54:05;;;;;;;46.55;27.48;;;1.00;99.90;;;;;;5122096;27;20050;-82
2022/01/11 02:56:31;;;;;;;53.72;27.92;;;1.00;99.90;;;;;;5118562;27;20476;-82
2022/01/11 02:58:58;;;;;;;50.20;27.23;;;1.00;99.90;;;;;;5103200;27;20074;-82
2022/01/11 03:01:23;;;;;;;51.80;25.40;;;1.00;99.90;;;;;;5088093;27;20043;-82
2022/01/11 03:03:51;;;;;;;52.10;26.10;;;1.00;99.90;;;;;;5105351;27;20043;-83
2022/01/11 03:06:17;;;;;;;48.60;26.58;;;1.10;99.90;;;;;;5104671;27;20043;-82
2022/01/11 03:08:46;;;;;;;45.50;26.25;;;1.00;99.90;;;;;;5104843;27;20050;-82
2022/01/11 03:11:14;;;;;;;42.38;25.15;;;1.00;99.90;;;;;;5120791;27;20039;-82
2022/01/11 03:13:43;;;;;;;46.40;25.20;;;1.00;99.90;;;;;;5121459;27;20481;-82
2022/01/11 03:16:10;;;;;;;48.25;24.85;;;1.10;99.90;;;;;;5122030;27;20043;-83
2022/01/11 03:18:36;;;;;;;46.03;25.60;;;1.10;99.90;;;;;;5122086;27;20058;-82
2022/01/11 03:21:03;;;;;;;46.63;26.13;;;1.10;99.90;;;;;;5121892;27;20042;-82
2022/01/11 03:23:29;;;;;;;43.47;24.48;;;1.00;99.90;;;;;;5138672;27;20074;-82
2022/01/11 03:25:55;;;;;;;47.08;25.45;;;1.00;99.90;;;;;;5121418;27;20046;-83
2022/01/11 03:28:22;;;;;;;48.63;25.45;;;1.10;99.90;;;;;;5120442;27;20035;-82
2022/01/11 03:30:50;;;;;;;48.85;26.42;;;1.00;99.90;;;;;;5137845;27;20039;-82
2022/01/11 03:33:16;;;;;;;50.30;27.33;;;1.00;99.90;;;;;;5104152;27;20039;-82
2022/01/11 03:35:43;;;;;;;48.58;25.67;;;1.00;99.90;;;;;;5121960;27;20414;-82
2022/01/11 03:38:11;;;;;;;48.25;25.13;;;1.00;99.90;;;;;;5138485;27;20122;-82
2022/01/11 03:40:39;;;;;;;51.08;25.85;;;1.00;99.90;;;;;;5120836;27;20053;-82
2022/01/11 03:43:05;;;;;;;44.28;26.55;;;1.10;99.90;;;;;;5104705;27;20095;-83
2022/01/11 03:45:31;;;;;;;52.22;26.67;;;1.00;99.90;;;;;;5117252;27;20067;-82
2022/01/11 03:47:59;;;;;;;53.65;26.58;;;1.00;99.90;;;;;;5117351;27;20062;-82
2022/01/11 03:50:25;;;;;;;48.63;26.15;;;1.00;99.90;;;;;;5133565;27;20035;-81
2022/01/11 03:52:59;;;;;;;46.97;27.25;;;1.00;99.90;;;;;;5100829;27;20071;-82
2022/01/11 03:56:09;;;;;;;45.65;26.65;;;1.00;99.90;;;;;;5097898;28;20122;-82
2022/01/11 03:58:15;;;;;;;54.80;28.02;;;0.90;99.90;;;;;;5121507;27;20051;-83
2022/01/11 04:00:41;;;;;;;49.67;26.90;;;0.90;99.90;;;;;;5113285;28;20070;-82
2022/01/11 04:03:07;;;;;;;49.28;26.85;;;0.90;99.90;;;;;;5097019;28;20646;-81
2022/01/11 04:05:33;;;;;;;55.88;27.90;;;1.00;99.90;;;;;;5107066;27;20089;-82
2022/01/11 04:07:59;;;;;;;57.03;27.42;;;1.00;99.90;;;;;;5100182;27;20047;-82
2022/01/11 04:10:26;;;;;;;51.95;28.20;;;1.00;99.90;;;;;;5117018;27;20051;-82
2022/01/11 04:12:52;;;;;;;59.53;29.63;;;1.00;99.90;;;;;;5117475;27;20084;-83
2022/01/11 04:15:18;;;;;;;55.13;27.95;;;1.00;99.90;;;;;;5083329;27;20072;-82
2022/01/11 04:17:45;;;;;;;58.63;27.55;;;1.00;99.90;;;;;;5083495;27;20129;-82
2022/01/11 04:20:10;;;;;;;52.25;25.40;;;1.00;99.90;;;;;;5134604;27;20031;-82
2022/01/11 04:22:36;;;;;;;55.88;27.23;;;1.00;99.90;;;;;;5079523;28;20039;-82
2022/01/11 04:25:03;;;;;;;54.20;27.20;;;1.00;99.90;;;;;;5113904;28;20488;-83
2022/01/11 04:27:28;;;;;;;55.58;26.45;;;1.00;99.90;;;;;;5115962;27;20071;-81
2022/01/11 04:29:54;;;;;;;51.38;26.00;;;1.00;99.90;;;;;;5099715;27;20451;-82
2022/01/11 04:32:20;;;;;;;53.53;27.45;;;1.00;99.90;;;;;;5133969;27;20051;-83
2022/01/11 04:34:46;;;;;;;48.40;25.92;;;1.00;99.90;;;;;;5097931;28;20044;-82
2022/01/11 04:37:11;;;;;;;51.17;26.90;;;1.00;99.90;;;;;;5106417;27;20047;-82
2022/01/11 04:39:37;;;;;;;58.42;28.75;;;1.00;99.90;;;;;;5116903;27;20096;-83
2022/01/11 04:42:03;;;;;;;46.85;24.92;;;1.10;99.90;;;;;;5099847;27;20100;-83
2022/01/11 04:44:29;;;;;;;55.20;26.27;;;1.00;99.90;;;;;;5119318;27;20059;-83
2022/01/11 04:46:55;;;;;;;55.22;26.48;;;1.00;99.90;;;;;;5137445;27;20059;-82
2022/01/11 04:49:21;;;;;;;54.55;25.73;;;1.10;99.90;;;;;;5120352;27;20485;-83
2022/01/11 04:51:47;;;;;;;54.75;27.48;;;1.10;99.90;;;;;;5136752;27;20054;-82
2022/01/11 04:54:13;;;;;;;53.65;26.80;;;1.00;99.90;;;;;;5118008;27;20484;-82
2022/01/11 04:56:38;;;;;;;54.13;26.52;;;1.00;99.90;;;;;;5120029;27;20046;-82
2022/01/11 04:59:05;;;;;;;54.45;27.73;;;1.20;99.90;;;;;;5119380;27;20505;-83
2022/01/11 05:01:31;;;;;;;54.83;28.33;;;1.10;99.90;;;;;;5134975;27;20027;-82
2022/01/11 05:03:56;;;;;;;52.58;26.67;;;1.10;99.90;;;;;;5119034;27;20102;-82
2022/01/11 05:06:22;;;;;;;58.05;26.77;;;1.00;99.90;;;;;;5119308;27;20539;-82
2022/01/11 05:08:48;;;;;;;51.22;26.40;;;1.10;99.90;;;;;;5101916;27;20050;-83
2022/01/11 05:11:15;;;;;;;48.35;27.38;;;1.10;99.90;;;;;;5083275;27;20407;-82
2022/01/11 05:13:40;;;;;;;57.72;27.40;;;1.00;99.90;;;;;;5115909;27;20053;-83
2022/01/11 05:16:08;;;;;;;56.80;27.65;;;1.00;99.90;;;;;;5099348;27;20043;-82
2022/01/11 05:18:36;;;;;;;58.35;28.25;;;1.00;99.90;;;;;;5090149;27;20046;-82
2022/01/11 05:21:02;;;;;;;56.17;27.85;;;1.00;99.90;;;;;;5083037;27;20046;-83
2022/01/11 05:23:28;;;;;;;62.15;29.85;;;1.00;99.90;;;;;;5136553;27;20501;-82
2022/01/11 05:25:54;;;;;;;60.28;27.95;;;1.00;99.90;;;;;;5136640;27;20047;-83
2022/01/11 05:28:19;;;;;;;58.50;28.23;;;1.00;99.90;;;;;;5115835;27;20073;-82
2022/01/11 05:30:45;;;;;;;53.75;27.20;;;1.00;99.90;;;;;;5091505;27;20061;-82
2022/01/11 05:33:11;;;;;;;59.17;28.35;;;1.10;99.90;;;;;;5103254;27;20080;-82
2022/01/11 05:35:37;;;;;;;61.10;28.30;;;1.00;99.90;;;;;;5118782;27;20054;-81
2022/01/11 05:38:03;;;;;;;59.88;27.00;;;1.00;99.90;;;;;;5071511;27;20138;-82
2022/01/11 05:40:29;;;;;;;52.75;26.02;;;1.00;99.90;;;;;;5082305;28;20133;-83
2022/01/11 05:42:54;;;;;;;54.65;27.27;;;1.00;99.90;;;;;;5098615;28;20040;-83
2022/01/11 05:45:20;;;;;;;56.25;26.77;;;0.90;99.90;;;;;;5132746;27;20045;-83
2022/01/11 05:47:48;;;;;;;51.22;25.60;;;1.00;99.90;;;;;;5118891;27;20050;-83
2022/01/11 05:50:14;;;;;;;54.78;26.40;;;1.00;99.90;;;;;;5118586;27;20054;-84
2022/01/11 05:52:40;;;;;;;57.40;27.83;;;1.00;99.90;;;;;;5085630;27;20059;-83
2022/01/11 05:55:08;;;;;;;47.25;24.38;;;1.00;99.90;;;;;;5119217;27;20521;-82
2022/01/11 05:57:35;;;;;;;52.90;26.50;;;1.00;99.90;;;;;;5134948;27;20090;-83
2022/01/11 06:00:05;;;;;;;50.65;25.33;;;1.10;99.90;;;;;;5119026;27;20046;-83
2022/01/11 06:02:31;;;;;;;52.13;25.95;;;1.00;99.90;;;;;;5119107;27;20043;-83
2022/01/11 06:04:56;;;;;;;55.97;26.65;;;1.00;99.90;;;;;;5105202;27;20386;-83
2022/01/11 06:07:22;;;;;;;55.03;26.60;;;1.00;99.90;;;;;;5123314;27;20499;-83
2022/01/11 06:09:48;;;;;;;49.22;25.67;;;1.00;99.90;;;;;;5089417;27;20142;-82
2022/01/11 06:12:13;;;;;;;53.33;25.88;;;1.10;99.90;;;;;;5106325;27;20042;-85
2022/01/11 06:14:39;;;;;;;61.42;27.73;;;1.00;99.90;;;;;;5118752;27;20078;-85
2022/01/11 06:17:04;;;;;;;51.83;26.50;;;1.00;99.90;;;;;;5101860;27;20050;-84
2022/01/11 06:19:31;;;;;;;51.28;25.20;;;1.00;99.90;;;;;;5139211;27;20122;-83
2022/01/11 06:21:58;;;;;;;52.88;24.90;;;1.00;99.90;;;;;;5122513;27;20038;-83
2022/01/11 06:24:24;;;;;;;56.13;24.70;;;1.00;99.90;;;;;;5123010;27;20133;-83
2022/01/11 06:26:49;;;;;;;54.78;25.65;;;1.00;99.90;;;;;;5104963;27;20130;-84
2022/01/11 06:29:15;;;;;;;48.75;24.23;;;1.00;99.90;;;;;;5122315;27;20141;-83
2022/01/11 06:31:41;;;;;;;52.72;24.85;;;1.00;99.90;;;;;;5122871;27;20054;-83
2022/01/11 06:34:06;;;;;;;52.90;26.15;;;1.00;99.90;;;;;;5105479;27;20042;-83
2022/01/11 06:36:32;;;;;;;56.40;27.10;;;0.90;99.90;;;;;;5104679;27;20047;-84
2022/01/11 06:38:58;;;;;;;62.03;26.67;;;0.90;99.90;;;;;;5122707;27;20058;-83
2022/01/11 06:41:24;;;;;;;56.65;26.65;;;0.90;99.90;;;;;;5121695;27;20039;-84
2022/01/11 06:43:52;;;;;;;58.03;25.65;;;0.90;99.90;;;;;;5137541;27;20151;-85
2022/01/11 06:46:18;;;;;;;65.13;28.25;;;0.90;99.90;;;;;;5103578;27;20054;-84
2022/01/11 06:48:44;;;;;;;50.28;24.98;;;1.00;99.90;;;;;;5102601;27;20771;-84
2022/01/11 06:51:10;;;;;;;55.08;25.90;;;0.90;99.90;;;;;;5121073;27;20046;-84
2022/01/11 06:53:36;;;;;;;59.20;26.50;;;0.90;99.90;;;;;;5120467;27;20039;-85
2022/01/11 06:56:01;;;;;;;55.53;26.70;;;0.80;99.90;;;;;;5103929;27;20058;-84
2022/01/11 06:58:27;;;;;;;60.63;27.95;;;0.80;99.90;;;;;;5120722;27;20088;-83
2022/01/11 07:00:53;;;;;;;58.35;27.85;;;0.80;99.90;;;;;;5116856;27;20125;-84
2022/01/11 07:03:18;;;;;;;55.63;24.73;;;0.80;99.90;;;;;;5116270;27;20039;-83
2022/01/11 07:05:45;;;;;;;61.35;27.85;;;0.80;99.90;;;;;;5108100;27;20042;-84
2022/01/11 07:08:11;;;;;;;61.78;28.27;;;0.80;99.90;;;;;;5112897;27;20392;-83
2022/01/11 07:10:37;;;;;;;58.60;28.25;;;0.80;99.90;;;;;;5110578;27;20187;-83
2022/01/11 07:13:04;;;;;;;64.63;28.73;;;0.80;99.90;;;;;;5121785;27;20047;-80
2022/01/11 07:15:30;;;;;;;65.18;29.63;;;0.90;99.90;;;;;;5121343;27;20051;-82
2022/01/11 07:17:56;;;;;;;64.65;29.77;;;0.80;99.90;;;;;;5138359;27;20046;-82
2022/01/11 07:20:23;;;;;;;62.10;29.33;;;0.80;99.90;;;;;;5115123;27;20046;-83
2022/01/11 07:22:49;;;;;;;68.28;28.88;;;0.80;99.90;;;;;;5106055;27;20128;-83
2022/01/11 07:25:15;;;;;;;61.60;28.88;;;0.80;99.90;;;;;;5121518;27;20039;-83
2022/01/11 07:27:41;;;;;;;61.50;28.55;;;0.70;99.90;;;;;;5104377;27;20138;-83
2022/01/11 07:30:09;;;;;;;64.55;29.05;;;0.80;99.90;;;;;;5121492;27;20046;-82
2022/01/11 07:32:35;;;;;;;63.83;30.02;;;0.80;99.90;;;;;;5121993;27;20045;-83
2022/01/11 07:35:04;;;;;;;68.32;29.58;;;0.70;99.90;;;;;;5121265;27;20085;-83
2022/01/11 07:37:30;;;;;;;64.05;29.83;;;0.70;99.90;;;;;;5088360;27;20099;-83
2022/01/11 07:39:56;;;;;;;66.18;29.92;;;0.70;99.90;;;;;;5121538;27;20047;-83
2022/01/11 07:42:22;;;;;;;67.78;30.23;;;0.80;99.90;;;;;;5111455;27;20040;-83
2022/01/11 07:44:51;;;;;;;67.40;29.50;;;0.70;99.90;;;;;;5109535;27;20138;-83
2022/01/11 07:47:18;;;;;;;69.55;30.38;;;0.70;99.90;;;;;;5117911;27;20046;-81
2022/01/11 07:49:44;;;;;;;70.55;30.20;;;0.70;99.90;;;;;;5137946;27;20496;-82
2022/01/11 07:52:09;;;;;;;74.00;32.70;;;0.70;99.90;;;;;;5121139;27;20070;-81
2022/01/11 07:54:35;;;;;;;71.03;30.75;;;0.70;99.90;;;;;;5121151;27;20041;-81
2022/01/11 07:57:01;;;;;;;74.80;31.88;;;0.60;99.90;;;;;;5120560;27;20114;-81
2022/01/11 07:59:27;;;;;;;66.43;30.80;;;0.70;99.90;;;;;;5104371;27;20054;-81
2022/01/11 08:01:53;;;;;;;67.25;28.63;;;0.70;99.90;;;;;;5104108;27;20049;-81
2022/01/11 08:04:19;;;;;;;71.97;31.15;;;0.70;99.90;;;;;;5104273;27;20463;-81
2022/01/11 08:06:45;;;;;;;70.25;31.73;;;0.60;99.90;;;;;;5120702;27;20104;-81
2022/01/11 08:09:12;;;;;;;68.50;30.80;;;0.70;99.90;;;;;;5103877;27;20039;-81
2022/01/11 08:11:38;;;;;;;73.47;31.95;;;0.70;99.90;;;;;;5136544;27;20054;-81
2022/01/11 08:14:04;;;;;;;71.93;30.48;;;0.70;99.90;;;;;;5120338;27;20604;-81
2022/01/11 08:16:29;;;;;;;68.45;30.08;;;0.70;99.90;;;;;;5121045;27;20043;-81
2022/01/11 08:18:55;;;;;;;75.78;33.08;;;0.70;99.90;;;;;;5102164;27;20042;-81
2022/01/11 08:21:21;;;;;;;73.43;32.70;;;0.70;99.90;;;;;;5099491;27;20084;-81
2022/01/11 08:23:47;;;;;;;77.07;32.83;;;0.70;99.90;;;;;;5100490;27;20047;-80
2022/01/11 08:26:13;;;;;;;73.97;31.73;;;0.80;99.90;;;;;;5117468;27;20047;-80
2022/01/11 08:28:39;;;;;;;78.75;34.05;;;0.70;99.90;;;;;;5112544;27;20047;-81
2022/01/11 08:31:05;;;;;;;79.00;32.75;;;0.80;99.90;;;;;;5103599;27;20043;-80
2022/01/11 08:33:31;;;;;;;75.57;31.58;;;0.80;99.90;;;;;;5121031;27;20042;-80
2022/01/11 08:35:57;;;;;;;72.88;32.90;;;0.80;99.90;;;;;;5103527;27;20111;-79
2022/01/11 08:38:22;;;;;;;75.13;32.33;;;0.70;99.90;;;;;;5137724;27;20103;-79
2022/01/11 08:40:48;;;;;;;75.85;32.90;;;0.70;99.90;;;;;;5119527;27;20106;-79
2022/01/11 08:43:14;;;;;;;77.88;33.92;;;0.70;99.90;;;;;;5099223;27;20073;-78
2022/01/11 08:45:40;;;;;;;79.30;33.33;;;0.80;99.90;;;;;;5116390;27;20055;-79
2022/01/11 08:48:06;;;;;;;74.68;33.97;;;0.80;99.90;;;;;;5079511;27;20432;-78
2022/01/11 08:50:32;;;;;;;69.38;32.40;;;0.80;99.90;;;;;;5117220;27;20043;-78
2022/01/11 08:52:57;;;;;;;73.57;31.50;;;0.80;99.90;;;;;;5099673;27;20178;-78
2022/01/11 08:55:24;;;;;;;73.25;31.75;;;0.80;99.90;;;;;;5116616;27;20051;-78
2022/01/11 08:57:50;;;;;;;74.45;32.47;;;0.90;99.90;;;;;;5110385;27;20137;-79
2022/01/11 09:00:18;;;;;;;75.20;31.33;;;0.90;99.90;;;;;;5116495;27;20043;-79
2022/01/11 09:02:48;;;;;;;75.57;33.50;;;0.90;99.90;;;;;;5099016;27;20039;-79
2022/01/11 09:05:14;;;;;;;73.72;33.90;;;0.90;99.90;;;;;;5134761;27;20043;-79
2022/01/11 09:07:41;;;;;;;73.75;32.75;;;0.90;99.90;;;;;;5102938;27;20046;-77
2022/01/11 09:10:07;;;;;;;74.45;33.47;;;0.90;99.90;;;;;;5089585;27;20458;-76
2022/01/11 09:12:33;;;;;;;82.78;34.72;;;0.90;99.90;;;;;;5128205;27;20497;-77
2022/01/11 09:14:59;;;;;;;69.18;32.15;;;0.90;99.90;;;;;;5133997;27;20121;-81
2022/01/11 09:17:25;;;;;;;70.47;31.35;;;0.90;99.90;;;;;;5117094;27;20515;-82
2022/01/11 09:19:51;;;;;;;71.47;33.35;;;1.00;99.90;;;;;;5115875;27;20130;-80
2022/01/11 09:22:17;;;;;;;75.35;33.88;;;0.90;99.90;;;;;;5113641;27;20084;-79
2022/01/11 09:24:43;;;;;;;73.53;32.33;;;0.90;99.90;;;;;;5126801;27;20055;-79
2022/01/11 09:27:09;;;;;;;72.00;33.95;;;0.90;99.90;;;;;;5110440;27;20442;-79
2022/01/11 09:29:39;;;;;;;75.78;34.47;;;0.90;99.90;;;;;;5113608;28;20039;-79
2022/01/11 09:32:07;;;;;;;76.30;33.67;;;0.90;99.90;;;;;;5125502;27;20063;-82
2022/01/11 09:34:33;;;;;;;77.80;34.70;;;0.90;99.90;;;;;;5107311;28;20075;-80
2022/01/11 09:36:59;;;;;;;73.30;33.28;;;0.90;99.90;;;;;;5098611;28;20035;-80
2022/01/11 09:39:25;;;;;;;72.05;32.28;;;1.00;99.90;;;;;;5112812;27;20050;-81
2022/01/11 09:41:52;;;;;;;74.15;34.03;;;1.00;99.90;;;;;;5101723;27;20398;-81
2022/01/11 09:44:18;;;;;;;77.30;33.42;;;1.00;99.90;;;;;;5118868;27;20053;-80
2022/01/11 09:46:44;;;;;;;76.22;33.63;;;1.00;99.90;;;;;;5133452;27;20121;-81
2022/01/11 09:49:10;;;;;;;73.25;32.42;;;1.00;99.90;;;;;;5109594;27;20151;-81
2022/01/11 09:51:36;;;;;;;79.68;34.58;;;1.00;99.90;;;;;;5096039;27;20113;-81
2022/01/11 09:54:04;;;;;;;80.40;34.00;;;0.90;99.90;;;;;;5115633;27;20040;-82
2022/01/11 09:56:30;;;;;;;86.60;34.90;;;1.00;99.90;;;;;;5132585;27;20117;-82
2022/01/11 09:58:56;;;;;;;76.72;33.35;;;1.00;99.90;;;;;;5098976;27;20067;-83
2022/01/11 10:01:22;;;;;;;74.07;31.25;;;1.00;99.90;;;;;;5098910;27;20047;-81
2022/01/11 10:04:14;;;;;;;76.55;32.95;;;1.20;99.90;;;;;;5098382;28;20050;-81
2022/01/11 10:06:45;;;;;;;80.85;35.15;;;1.10;99.90;;;;;;5106532;27;20141;-81
2022/01/11 10:09:12;;;;;;;78.22;34.88;;;1.10;99.90;;;;;;5114337;27;20043;-84
2022/01/11 10:11:42;;;;;;;85.35;35.00;;;1.10;99.90;;;;;;5110435;27;20039;-81
2022/01/11 10:14:31;;;;;;;78.57;35.92;;;1.20;99.90;;;;;;5110289;27;20047;-80
2022/01/11 10:17:08;;;;;;;84.45;35.13;;;1.20;99.90;;;;;;5135218;27;20058;-80
2022/01/11 10:19:36;;;;;;;74.75;35.30;;;1.10;99.90;;;;;;5118277;27;20050;-83
2022/01/11 10:22:04;;;;;;;76.35;33.80;;;1.20;99.90;;;;;;5101940;27;20387;-80
2022/01/11 10:24:35;;;;;;;76.70;34.67;;;1.20;99.90;;;;;;5118503;27;20051;-83
2022/01/11 10:27:05;;;;;;;80.45;34.83;;;1.20;99.90;;;;;;5107468;28;20130;-79
2022/01/11 10:29:43;;;;;;;71.80;32.60;;;1.30;99.90;;;;;;5097684;28;20139;-83
2022/01/11 10:32:21;;;;;;;77.10;33.72;;;1.30;99.90;;;;;;5130861;27;20078;-82
2022/01/11 10:34:51;;;;;;;76.65;34.28;;;1.40;99.90;;;;;;5132278;27;20039;-81
2022/01/11 10:37:33;;;;;;;77.63;35.45;;;1.50;99.90;;;;;;5118824;27;20050;-81
2022/01/11 10:40:18;;;;;;;68.93;34.00;;;1.50;99.90;;;;;;5118478;27;20081;-82
2022/01/11 10:42:48;;;;;;;71.82;33.75;;;1.60;99.90;;;;;;5118420;27;20403;-80
2022/01/11 10:45:21;;;;;;;71.53;34.40;;;1.60;99.90;;;;;;5135701;27;20402;-80
2022/01/11 10:47:51;;;;;;;66.40;33.53;;;1.70;99.90;;;;;;5118929;27;20491;-78
2022/01/11 10:50:27;;;;;;;67.65;34.58;;;1.70;99.90;;;;;;5118760;27;20031;-80
2022/01/11 10:52:55;;;;;;;68.10;33.55;;;1.70;99.90;;;;;;5139949;27;20054;-80
2022/01/11 10:55:23;;;;;;;70.47;33.30;;;1.80;99.90;;;;;;5139370;27;20054;-80
2022/01/11 10:57:58;;;;;;;60.78;32.33;;;1.80;99.90;;;;;;5139618;27;20046;-80
2022/01/11 11:00:34;;;;;;;65.93;35.40;;;1.80;99.90;;;;;;5124617;27;20035;-80
2022/01/11 11:03:08;;;;;;;63.22;33.10;;;1.90;99.90;;;;;;5118497;27;20130;-80
2022/01/11 11:05:44;;;;;;;64.43;33.40;;;1.90;99.90;;;;;;5102149;27;20445;-80
2022/01/11 11:08:11;;;;;;;;;;;1.90;99.90;;;;;;5134728;27;20076;-80
2022/01/11 11:10:57;;;;;;;62.70;33.15;;;1.90;99.90;;;;;;5122489;27;20323;-82
2022/01/11 11:13:29;;;;;;;49.95;24.95;;;1.90;99.90;;;;;;5140012;27;20380;-81
2022/01/11 11:15:57;;;;;;;64.15;33.05;;;2.00;99.90;;;;;;5139092;27;20099;-81
2022/01/11 11:18:27;;;;;;;60.97;31.75;;;2.00;99.90;;;;;;5121982;27;20050;-81
2022/01/11 11:20:54;;;;;;;61.22;30.23;;;2.10;99.90;;;;;;5138883;27;20077;-81
2022/01/11 11:23:20;;;;;;;59.63;31.17;;;2.10;99.90;;;;;;5121546;27;20463;-81
2022/01/11 11:25:46;;;;;;;61.47;30.90;;;2.10;99.90;;;;;;5121864;27;20046;-82
2022/01/11 11:28:12;;;;;;;55.40;30.80;;;2.10;99.90;;;;;;5117915;27;20039;-86
2022/01/11 11:30:38;;;;;;;59.10;30.83;;;2.20;99.90;;;;;;5131601;27;20046;-84
2022/01/11 11:33:05;;;;;;;58.15;31.33;;;2.10;99.90;;;;;;5118105;27;20598;-84
2022/01/11 11:35:32;;;;;;;58.50;30.38;;;2.20;99.90;;;;;;5104641;27;20047;-81
2022/01/11 11:38:07;;;;;;;59.30;32.25;;;2.20;99.90;;;;;;5135389;27;20503;-82
2022/01/11 11:40:34;;;;;;;57.67;29.50;;;2.30;99.90;;;;;;5138577;27;20453;-81
2022/01/11 11:43:02;;;;;;;55.85;30.17;;;2.20;99.90;;;;;;5104490;27;20094;-81
2022/01/11 11:45:37;;;;;;;59.05;30.23;;;2.20;99.90;;;;;;5103920;27;20057;-82
2022/01/11 11:48:07;;;;;;;54.00;29.38;;;2.30;99.90;;;;;;5138424;27;20061;-81
2022/01/11 11:50:45;;;;;;;60.53;31.65;;;2.30;99.90;;;;;;5123188;27;20042;-81
2022/01/11 11:53:36;;;;;;;57.15;29.88;;;2.30;99.90;;;;;;5125629;27;20050;-81
2022/01/11 11:56:14;;;;;;;53.78;29.38;;;2.30;99.90;;;;;;5118969;27;20053;-81
2022/01/11 11:58:42;;;;;;;63.08;32.00;;;2.40;99.90;;;;;;5138437;27;20047;-82
2022/01/11 12:01:33;;;;;;;50.03;26.73;;;2.40;99.90;;;;;;5120395;27;20045;-82
2022/01/11 12:03:59;;;;;;;57.05;30.98;;;2.40;99.90;;;;;;5136591;27;20083;-84
2022/01/11 12:06:26;;;;;;;56.95;29.65;;;2.50;99.90;;;;;;5119086;27;20077;-81
2022/01/11 12:09:11;;;;;;;51.28;28.13;;;2.50;99.90;;;;;;5104081;27;20043;-82
2022/01/11 12:11:40;;;;;;;52.55;27.50;;;2.60;99.90;;;;;;5121072;27;20072;-82
2022/01/11 12:14:06;;;;;;;50.35;27.95;;;2.60;99.90;;;;;;5137996;27;20066;-81
2022/01/11 12:16:36;;;;;;;51.15;26.98;;;2.60;99.90;;;;;;5136897;27;20046;-83
2022/01/11 12:19:14;;;;;;;54.35;28.15;;;2.70;99.90;;;;;;5120970;27;20039;-81
2022/01/11 12:21:44;;;;;;;51.53;27.33;;;2.70;99.90;;;;;;5137754;27;20050;-81
2022/01/11 12:24:11;;;;;;;52.00;27.02;;;2.70;99.90;;;;;;5117194;27;20126;-81
2022/01/11 12:26:38;;;;;;;49.90;27.52;;;2.70;99.90;;;;;;5100327;27;20104;-81
2022/01/11 12:29:10;;;;;;;48.08;27.05;;;2.90;99.90;;;;;;5100033;27;20055;-81
2022/01/11 12:31:49;;;;;;;53.15;27.85;;;2.80;99.90;;;;;;5100025;27;20039;-78
2022/01/11 12:34:15;;;;;;;53.13;26.58;;;2.80;99.90;;;;;;5135862;27;20039;-82
2022/01/11 12:36:57;;;;;;;46.63;25.77;;;2.90;99.90;;;;;;5098053;27;20106;-82
2022/01/11 12:39:25;;;;;;;48.00;25.70;;;2.90;99.90;;;;;;5119972;27;20042;-82
2022/01/11 12:41:52;;;;;;;44.78;25.05;;;2.90;99.90;;;;;;5109535;27;20381;-81